sensor_id;sensor_type;location;lat;lon;timestamp;temperature;humidity
59282;DHT22;45054;52.062;10.010;2023-04-21T00:02:01;6.30;99.90
59282;DHT22;45054;52.062;10.010;2023-04-21T00:04:28;6.20;99.90
59282;DHT22;45054;52.062;10.010;2023-04-21T00:06:53;6.20;99.90
59282;DHT22;45054;52.062;10.010;2023-04-21T00:09:18;6.20;99.90
59282;DHT22;45054;52.062;10.010;2023-04-21T00:11:44;6.20;99.90
59282;DHT22;45054;52.062;10.010;2023-04-21T00:14:09;6.20;99.90
59282;DHT22;45054;52.062;10.010;2023-04-21T00:16:35;6.20;99.90
59282;DHT22;45054;52.062;10.010;2023-04-21T00:19:00;6.20;99.90
59282;DHT22;45054;52.062;10.010;2023-04-21T00:21:27;6.10;99.90
59282;DHT22;45054;52.062;10.010;2023-04-21T00:23:52;6.20;99.90
59282;DHT22;45054;52.062;10.010;2023-04-21T00:26:18;6.10;99.90
59282;DHT22;45054;52.062;10.010;2023-04-21T00:28:43;6.10;99.90
59282;DHT22;45054;52.062;10.010;2023-04-21T00:31:09;6.20;99.90
59282;DHT22;45054;52.062;10.010;2023-04-21T00:33:34;6.50;99.90
59282;DHT22;45054;52.062;10.010;2023-04-21T00:36:00;6.60;99.90
59282;DHT22;45054;52.062;10.010;2023-04-21T00:38:26;6.60;99.90
59282;DHT22;45054;52.062;10.010;2023-04-21T00:40:52;6.70;99.90
59282;DHT22;45054;52.062;10.010;2023-04-21T00:43:17;6.70;99.90
59282;DHT22;45054;52.062;10.010;2023-04-21T00:45:43;6.70;99.90
59282;DHT22;45054;52.062;10.010;2023-04-21T00:48:09;6.70;99.90
59282;DHT22;45054;52.062;10.010;2023-04-21T00:50:35;6.60;99.90
59282;DHT22;45054;52.062;10.010;2023-04-21T00:53:00;6.60;99.90
59282;DHT22;45054;52.062;10.010;2023-04-21T00:55:27;6.60;99.90
59282;DHT22;45054;52.062;10.010;2023-04-21T00:57:52;6.60;99.90
59282;DHT22;45054;52.062;10.010;2023-04-21T01:00:19;6.60;99.90
59282;DHT22;45054;52.062;10.010;2023-04-21T01:02:44;6.50;99.90
59282;DHT22;45054;52.062;10.010;2023-04-21T01:05:10;6.40;99.90
59282;DHT22;45054;52.062;10.010;2023-04-21T01:07:35;6.30;99.90
59282;DHT22;45054;52.062;10.010;2023-04-21T01:10:01;6.40;99.90
59282;DHT22;45054;52.062;10.010;2023-04-21T01:12:28;6.60;99.90
59282;DHT22;45054;52.062;10.010;2023-04-21T01:14:53;6.60;99.90
59282;DHT22;45054;52.062;10.010;2023-04-21T01:17:19;6.70;99.90
59282;DHT22;45054;52.062;10.010;2023-04-21T01:19:45;6.80;99.90
59282;DHT22;45054;52.062;10.010;2023-04-21T01:22:12;6.70;99.90
59282;DHT22;45054;52.062;10.010;2023-04-21T01:24:38;6.50;99.90
59282;DHT22;45054;52.062;10.010;2023-04-21T01:27:07;6.30;99.90
59282;DHT22;45054;52.062;10.010;2023-04-21T01:29:33;6.20;99.90
59282;DHT22;45054;52.062;10.010;2023-04-21T01:32:02;6.20;99.90
59282;DHT22;45054;52.062;10.010;2023-04-21T01:34:28;6.20;99.90
59282;DHT22;45054;52.062;10.010;2023-04-21T01:36:53;6.30;99.90
59282;DHT22;45054;52.062;10.010;2023-04-21T01:39:20;6.30;99.90
59282;DHT22;45054;52.062;10.010;2023-04-21T01:41:46;6.30;99.90
59282;DHT22;45054;52.062;10.010;2023-04-21T01:44:11;6.30;99.90
59282;DHT22;45054;52.062;10.010;2023-04-21T01:46:37;6.40;99.90
59282;DHT22;45054;52.062;10.010;2023-04-21T01:49:02;6.40;99.90
59282;DHT22;45054;52.062;10.010;2023-04-21T01:51:27;6.60;99.90
59282;DHT22;45054;52.062;10.010;2023-04-21T01:53:53;6.50;99.90
59282;DHT22;45054;52.062;10.010;2023-04-21T01:56:20;6.60;99.90
59282;DHT22;45054;52.062;10.010;2023-04-21T01:58:45;6.60;99.90
59282;DHT22;45054;52.062;10.010;2023-04-21T02:01:10;6.60;99.90
59282;DHT22;45054;52.062;10.010;2023-04-21T02:03:36;6.70;99.90
59282;DHT22;45054;52.062;10.010;2023-04-21T02:06:01;6.70;99.90
59282;DHT22;45054;52.062;10.010;2023-04-21T02:08:27;6.80;99.90
59282;DHT22;45054;52.062;10.010;2023-04-21T02:10:52;6.80;99.90
59282;DHT22;45054;52.062;10.010;2023-04-21T02:13:19;6.80;99.90
59282;DHT22;45054;52.062;10.010;2023-04-21T02:15:45;6.80;99.90
59282;DHT22;45054;52.062;10.010;2023-04-21T02:18:10;6.70;99.90
59282;DHT22;45054;52.062;10.010;2023-04-21T02:20:35;6.70;99.90
59282;DHT22;45054;52.062;10.010;2023-04-21T02:23:01;6.60;99.90
59282;DHT22;45054;52.062;10.010;2023-04-21T02:25:26;6.60;99.90
59282;DHT22;45054;52.062;10.010;2023-04-21T02:27:52;6.60;99.90
59282;DHT22;45054;52.062;10.010;2023-04-21T02:30:19;6.70;99.90
59282;DHT22;45054;52.062;10.010;2023-04-21T02:32:44;6.70;99.90
59282;DHT22;45054;52.062;10.010;2023-04-21T02:35:10;6.70;99.90
59282;DHT22;45054;52.062;10.010;2023-04-21T02:37:35;6.70;99.90
59282;DHT22;45054;52.062;10.010;2023-04-21T02:40:00;6.70;99.90
59282;DHT22;45054;52.062;10.010;2023-04-21T02:42:26;6.90;99.90
59282;DHT22;45054;52.062;10.010;2023-04-21T02:44:51;7.00;99.90
59282;DHT22;45054;52.062;10.010;2023-04-21T02:47:18;7.10;99.90
59282;DHT22;45054;52.062;10.010;2023-04-21T02:49:43;7.10;99.90
59282;DHT22;45054;52.062;10.010;2023-04-21T02:52:09;7.10;99.90
59282;DHT22;45054;52.062;10.010;2023-04-21T02:54:34;7.10;99.90
59282;DHT22;45054;52.062;10.010;2023-04-21T02:57:00;7.10;99.90
59282;DHT22;45054;52.062;10.010;2023-04-21T02:59:25;7.10;99.90
59282;DHT22;45054;52.062;10.010;2023-04-21T03:01:51;7.00;99.90
59282;DHT22;45054;52.062;10.010;2023-04-21T03:04:18;6.90;99.90
59282;DHT22;45054;52.062;10.010;2023-04-21T03:06:43;6.90;99.90
59282;DHT22;45054;52.062;10.010;2023-04-21T03:09:08;6.90;99.90
59282;DHT22;45054;52.062;10.010;2023-04-21T03:11:34;6.90;99.90
59282;DHT22;45054;52.062;10.010;2023-04-21T03:13:59;7.00;99.90
59282;DHT22;45054;52.062;10.010;2023-04-21T03:16:25;7.00;99.90
59282;DHT22;45054;52.062;10.010;2023-04-21T03:18:50;7.00;99.90
59282;DHT22;45054;52.062;10.010;2023-04-21T03:21:17;7.00;99.90
59282;DHT22;45054;52.062;10.010;2023-04-21T03:23:42;7.10;99.90
59282;DHT22;45054;52.062;10.010;2023-04-21T03:26:08;7.30;99.90
59282;DHT22;45054;52.062;10.010;2023-04-21T03:28:33;7.40;99.90
59282;DHT22;45054;52.062;10.010;2023-04-21T03:30:59;7.50;99.90
59282;DHT22;45054;52.062;10.010;2023-04-21T03:33:24;7.50;99.90
59282;DHT22;45054;52.062;10.010;2023-04-21T03:35:49;7.50;99.90
59282;DHT22;45054;52.062;10.010;2023-04-21T03:38:16;7.50;99.90
59282;DHT22;45054;52.062;10.010;2023-04-21T03:40:42;7.50;99.90
59282;DHT22;45054;52.062;10.010;2023-04-21T03:43:07;7.40;99.90
59282;DHT22;45054;52.062;10.010;2023-04-21T03:45:33;7.30;99.90
59282;DHT22;45054;52.062;10.010;2023-04-21T03:47:59;7.30;99.90
59282;DHT22;45054;52.062;10.010;2023-04-21T03:50:24;7.20;99.90
59282;DHT22;45054;52.062;10.010;2023-04-21T03:52:50;7.20;99.90
59282;DHT22;45054;52.062;10.010;2023-04-21T03:55:17;7.10;99.90
59282;DHT22;45054;52.062;10.010;2023-04-21T03:57:42;7.10;99.90
59282;DHT22;45054;52.062;10.010;2023-04-21T04:00:08;7.00;99.90
59282;DHT22;45054;52.062;10.010;2023-04-21T04:02:34;7.00;99.90
59282;DHT22;45054;52.062;10.010;2023-04-21T04:04:59;6.90;99.90
59282;DHT22;45054;52.062;10.010;2023-04-21T04:07:25;7.00;99.90
59282;DHT22;45054;52.062;10.010;2023-04-21T04:09:50;7.00;99.90
59282;DHT22;45054;52.062;10.010;2023-04-21T04:12:17;7.00;99.90
59282;DHT22;45054;52.062;10.010;2023-04-21T04:14:42;7.10;99.90
59282;DHT22;45054;52.062;10.010;2023-04-21T04:17:08;7.10;99.90
59282;DHT22;45054;52.062;10.010;2023-04-21T04:19:33;7.10;99.90
59282;DHT22;45054;52.062;10.010;2023-04-21T04:21:58;7.20;99.90
59282;DHT22;45054;52.062;10.010;2023-04-21T04:24:24;7.20;99.90
59282;DHT22;45054;52.062;10.010;2023-04-21T04:26:49;7.20;99.90
59282;DHT22;45054;52.062;10.010;2023-04-21T04:29:16;7.30;99.90
59282;DHT22;45054;52.062;10.010;2023-04-21T04:31:42;7.40;99.90
59282;DHT22;45054;52.062;10.010;2023-04-21T04:34:07;7.50;99.90
59282;DHT22;45054;52.062;10.010;2023-04-21T04:36:33;7.70;99.90
59282;DHT22;45054;52.062;10.010;2023-04-21T04:38:58;7.70;99.90
59282;DHT22;45054;52.062;10.010;2023-04-21T04:41:23;7.80;99.90
59282;DHT22;45054;52.062;10.010;2023-04-21T04:43:49;7.90;99.90
59282;DHT22;45054;52.062;10.010;2023-04-21T04:46:16;8.00;99.90
59282;DHT22;45054;52.062;10.010;2023-04-21T04:48:41;8.00;99.90
59282;DHT22;45054;52.062;10.010;2023-04-21T04:51:06;8.10;99.90
59282;DHT22;45054;52.062;10.010;2023-04-21T04:53:32;8.20;99.90
59282;DHT22;45054;52.062;10.010;2023-04-21T04:55:57;8.20;99.90
59282;DHT22;45054;52.062;10.010;2023-04-21T04:58:23;8.20;99.90
59282;DHT22;45054;52.062;10.010;2023-04-21T05:00:49;8.30;99.90
59282;DHT22;45054;52.062;10.010;2023-04-21T05:03:16;8.30;99.90
59282;DHT22;45054;52.062;10.010;2023-04-21T05:05:41;8.40;99.90
59282;DHT22;45054;52.062;10.010;2023-04-21T05:08:07;8.50;99.90
59282;DHT22;45054;52.062;10.010;2023-04-21T05:10:32;8.50;99.90
59282;DHT22;45054;52.062;10.010;2023-04-21T05:12:57;8.60;99.90
59282;DHT22;45054;52.062;10.010;2023-04-21T05:15:23;8.60;99.90
59282;DHT22;45054;52.062;10.010;2023-04-21T05:17:48;8.60;99.90
59282;DHT22;45054;52.062;10.010;2023-04-21T05:20:15;8.60;99.90
59282;DHT22;45054;52.062;10.010;2023-04-21T05:22:41;8.70;99.90
59282;DHT22;45054;52.062;10.010;2023-04-21T05:25:06;8.70;99.90
59282;DHT22;45054;52.062;10.010;2023-04-21T05:27:32;8.70;99.90
59282;DHT22;45054;52.062;10.010;2023-04-21T05:29:57;8.70;99.90
59282;DHT22;45054;52.062;10.010;2023-04-21T05:32:23;8.70;99.90
59282;DHT22;45054;52.062;10.010;2023-04-21T05:34:48;8.70;99.90
59282;DHT22;45054;52.062;10.010;2023-04-21T05:37:15;8.70;99.90
59282;DHT22;45054;52.062;10.010;2023-04-21T05:39:40;8.70;99.90
59282;DHT22;45054;52.062;10.010;2023-04-21T05:42:08;8.70;99.90
59282;DHT22;45054;52.062;10.010;2023-04-21T05:44:33;8.80;99.90
59282;DHT22;45054;52.062;10.010;2023-04-21T05:46:58;8.80;99.90
59282;DHT22;45054;52.062;10.010;2023-04-21T05:49:24;8.80;99.90
59282;DHT22;45054;52.062;10.010;2023-04-21T05:51:49;8.80;99.90
59282;DHT22;45054;52.062;10.010;2023-04-21T05:54:16;8.80;99.90
59282;DHT22;45054;52.062;10.010;2023-04-21T05:56:41;8.80;99.90
59282;DHT22;45054;52.062;10.010;2023-04-21T05:59:07;8.90;99.90
59282;DHT22;45054;52.062;10.010;2023-04-21T06:01:32;8.90;99.90
59282;DHT22;45054;52.062;10.010;2023-04-21T06:03:58;9.00;99.90
59282;DHT22;45054;52.062;10.010;2023-04-21T06:06:24;9.00;99.90
59282;DHT22;45054;52.062;10.010;2023-04-21T06:08:49;9.00;99.90
59282;DHT22;45054;52.062;10.010;2023-04-21T06:11:16;9.10;99.90
59282;DHT22;45054;52.062;10.010;2023-04-21T06:13:42;9.10;99.90
59282;DHT22;45054;52.062;10.010;2023-04-21T06:16:07;9.10;99.90
59282;DHT22;45054;52.062;10.010;2023-04-21T06:18:33;9.10;99.90
59282;DHT22;45054;52.062;10.010;2023-04-21T06:20:58;9.10;99.90
59282;DHT22;45054;52.062;10.010;2023-04-21T06:23:23;9.20;99.90
59282;DHT22;45054;52.062;10.010;2023-04-21T06:25:57;9.10;99.90
59282;DHT22;45054;52.062;10.010;2023-04-21T06:28:24;9.10;99.90
59282;DHT22;45054;52.062;10.010;2023-04-21T06:30:49;9.20;99.90
59282;DHT22;45054;52.062;10.010;2023-04-21T06:33:15;9.30;99.90
59282;DHT22;45054;52.062;10.010;2023-04-21T06:35:40;9.40;99.90
59282;DHT22;45054;52.062;10.010;2023-04-21T06:38:07;9.50;99.90
59282;DHT22;45054;52.062;10.010;2023-04-21T06:40:32;9.60;99.90
59282;DHT22;45054;52.062;10.010;2023-04-21T06:42:58;9.60;99.90
59282;DHT22;45054;52.062;10.010;2023-04-21T06:45:25;9.70;99.90
59282;DHT22;45054;52.062;10.010;2023-04-21T06:47:50;9.70;99.90
59282;DHT22;45054;52.062;10.010;2023-04-21T06:50:16;9.70;99.90
59282;DHT22;45054;52.062;10.010;2023-04-21T06:52:41;9.80;99.90
59282;DHT22;45054;52.062;10.010;2023-04-21T06:55:07;9.90;99.90
59282;DHT22;45054;52.062;10.010;2023-04-21T06:57:32;10.00;99.90
59282;DHT22;45054;52.062;10.010;2023-04-21T06:59:58;10.10;99.90
59282;DHT22;45054;52.062;10.010;2023-04-21T07:02:24;10.10;99.90
59282;DHT22;45054;52.062;10.010;2023-04-21T07:04:50;10.10;99.90
59282;DHT22;45054;52.062;10.010;2023-04-21T07:07:15;10.20;99.90
59282;DHT22;45054;52.062;10.010;2023-04-21T07:09:42;10.20;99.90
59282;DHT22;45054;52.062;10.010;2023-04-21T07:12:08;10.30;99.90
59282;DHT22;45054;52.062;10.010;2023-04-21T07:14:33;10.30;99.90
59282;DHT22;45054;52.062;10.010;2023-04-21T07:16:59;10.40;99.90
59282;DHT22;45054;52.062;10.010;2023-04-21T07:19:25;10.50;99.90
59282;DHT22;45054;52.062;10.010;2023-04-21T07:21:51;10.50;99.90
59282;DHT22;45054;52.062;10.010;2023-04-21T07:24:16;10.50;99.90
59282;DHT22;45054;52.062;10.010;2023-04-21T07:26:42;10.60;99.90
59282;DHT22;45054;52.062;10.010;2023-04-21T07:29:07;10.60;99.90
59282;DHT22;45054;52.062;10.010;2023-04-21T07:31:33;10.70;99.90
59282;DHT22;45054;52.062;10.010;2023-04-21T07:33:58;10.80;99.90
59282;DHT22;45054;52.062;10.010;2023-04-21T07:36:25;10.90;99.90
59282;DHT22;45054;52.062;10.010;2023-04-21T07:38:50;11.00;99.90
59282;DHT22;45054;52.062;10.010;2023-04-21T07:41:16;11.00;99.90
59282;DHT22;45054;52.062;10.010;2023-04-21T07:43:41;11.10;99.90
59282;DHT22;45054;52.062;10.010;2023-04-21T07:46:07;11.20;99.90
59282;DHT22;45054;52.062;10.010;2023-04-21T07:48:32;11.30;99.90
59282;DHT22;45054;52.062;10.010;2023-04-21T07:50:58;11.40;99.90
59282;DHT22;45054;52.062;10.010;2023-04-21T07:53:24;11.50;99.90
59282;DHT22;45054;52.062;10.010;2023-04-21T07:55:50;11.50;99.90
59282;DHT22;45054;52.062;10.010;2023-04-21T07:58:15;11.70;99.90
59282;DHT22;45054;52.062;10.010;2023-04-21T08:00:41;11.70;99.90
59282;DHT22;45054;52.062;10.010;2023-04-21T08:03:06;11.80;99.90
59282;DHT22;45054;52.062;10.010;2023-04-21T08:05:32;11.80;99.90
59282;DHT22;45054;52.062;10.010;2023-04-21T08:07:57;11.90;99.90
59282;DHT22;45054;52.062;10.010;2023-04-21T08:10:24;11.90;99.90
59282;DHT22;45054;52.062;10.010;2023-04-21T08:12:50;11.90;99.90
59282;DHT22;45054;52.062;10.010;2023-04-21T08:15:15;12.10;99.90
59282;DHT22;45054;52.062;10.010;2023-04-21T08:17:41;12.20;99.90
59282;DHT22;45054;52.062;10.010;2023-04-21T08:20:06;12.30;99.90
59282;DHT22;45054;52.062;10.010;2023-04-21T08:22:32;12.40;99.90
59282;DHT22;45054;52.062;10.010;2023-04-21T08:24:57;12.50;99.90
59282;DHT22;45054;52.062;10.010;2023-04-21T08:27:24;12.60;99.90
59282;DHT22;45054;52.062;10.010;2023-04-21T08:29:50;12.60;99.90
59282;DHT22;45054;52.062;10.010;2023-04-21T08:32:15;12.70;99.90
59282;DHT22;45054;52.062;10.010;2023-04-21T08:34:41;12.80;99.90
59282;DHT22;45054;52.062;10.010;2023-04-21T08:37:06;12.90;99.90
59282;DHT22;45054;52.062;10.010;2023-04-21T08:39:31;13.00;99.90
59282;DHT22;45054;52.062;10.010;2023-04-21T08:41:57;13.00;99.90
59282;DHT22;45054;52.062;10.010;2023-04-21T08:44:24;13.10;99.90
59282;DHT22;45054;52.062;10.010;2023-04-21T08:46:50;13.20;99.90
59282;DHT22;45054;52.062;10.010;2023-04-21T08:49:18;13.30;99.90
59282;DHT22;45054;52.062;10.010;2023-04-21T08:51:44;13.30;99.90
59282;DHT22;45054;52.062;10.010;2023-04-21T08:54:10;13.50;99.90
59282;DHT22;45054;52.062;10.010;2023-04-21T08:56:35;13.50;99.90
59282;DHT22;45054;52.062;10.010;2023-04-21T08:59:01;13.70;99.90
59282;DHT22;45054;52.062;10.010;2023-04-21T09:01:28;13.80;99.90
59282;DHT22;45054;52.062;10.010;2023-04-21T09:03:57;14.00;99.90
59282;DHT22;45054;52.062;10.010;2023-04-21T09:06:39;14.10;99.90
59282;DHT22;45054;52.062;10.010;2023-04-21T09:09:05;14.20;99.90
59282;DHT22;45054;52.062;10.010;2023-04-21T09:11:31;14.30;99.90
59282;DHT22;45054;52.062;10.010;2023-04-21T09:13:57;14.30;99.90
59282;DHT22;45054;52.062;10.010;2023-04-21T09:16:22;14.40;99.90
59282;DHT22;45054;52.062;10.010;2023-04-21T09:18:49;14.50;99.90
59282;DHT22;45054;52.062;10.010;2023-04-21T09:21:15;14.50;99.90
59282;DHT22;45054;52.062;10.010;2023-04-21T09:23:41;14.50;99.90
59282;DHT22;45054;52.062;10.010;2023-04-21T09:26:06;14.60;99.90
59282;DHT22;45054;52.062;10.010;2023-04-21T09:28:32;14.70;99.90
59282;DHT22;45054;52.062;10.010;2023-04-21T09:30:57;14.80;99.90
59282;DHT22;45054;52.062;10.010;2023-04-21T09:33:23;15.00;99.90
59282;DHT22;45054;52.062;10.010;2023-04-21T09:35:50;15.20;99.90
59282;DHT22;45054;52.062;10.010;2023-04-21T09:38:16;15.30;99.90
59282;DHT22;45054;52.062;10.010;2023-04-21T09:40:42;15.40;99.90
59282;DHT22;45054;52.062;10.010;2023-04-21T09:43:07;15.40;99.90
59282;DHT22;45054;52.062;10.010;2023-04-21T09:45:33;15.50;99.90
59282;DHT22;45054;52.062;10.010;2023-04-21T09:47:59;15.50;99.90
59282;DHT22;45054;52.062;10.010;2023-04-21T09:50:25;15.60;99.90
59282;DHT22;45054;52.062;10.010;2023-04-21T09:52:52;15.60;99.90
59282;DHT22;45054;52.062;10.010;2023-04-21T09:55:19;15.60;99.90
59282;DHT22;45054;52.062;10.010;2023-04-21T09:57:46;15.70;99.90
59282;DHT22;45054;52.062;10.010;2023-04-21T10:00:12;15.80;99.90
59282;DHT22;45054;52.062;10.010;2023-04-21T10:02:41;15.90;99.90
59282;DHT22;45054;52.062;10.010;2023-04-21T10:05:07;16.00;99.90
59282;DHT22;45054;52.062;10.010;2023-04-21T10:07:33;16.00;99.90
59282;DHT22;45054;52.062;10.010;2023-04-21T10:10:00;16.10;99.90
59282;DHT22;45054;52.062;10.010;2023-04-21T10:12:26;16.10;99.90
59282;DHT22;45054;52.062;10.010;2023-04-21T10:14:52;16.20;99.90
59282;DHT22;45054;52.062;10.010;2023-04-21T10:17:17;16.40;99.90
59282;DHT22;45054;52.062;10.010;2023-04-21T10:19:50;16.40;99.90
59282;DHT22;45054;52.062;10.010;2023-04-21T10:22:25;16.40;99.90
59282;DHT22;45054;52.062;10.010;2023-04-21T10:24:50;16.50;99.90
59282;DHT22;45054;52.062;10.010;2023-04-21T10:27:30;16.50;99.90
59282;DHT22;45054;52.062;10.010;2023-04-21T10:29:56;16.60;99.90
59282;DHT22;45054;52.062;10.010;2023-04-21T10:32:38;16.60;99.90
59282;DHT22;45054;52.062;10.010;2023-04-21T10:35:04;16.70;99.90
59282;DHT22;45054;52.062;10.010;2023-04-21T10:37:32;16.80;99.90
59282;DHT22;45054;52.062;10.010;2023-04-21T10:39:58;16.90;99.90
59282;DHT22;45054;52.062;10.010;2023-04-21T10:42:24;17.00;99.90
59282;DHT22;45054;52.062;10.010;2023-04-21T10:44:52;16.90;99.90
59282;DHT22;45054;52.062;10.010;2023-04-21T10:47:23;16.90;99.90
59282;DHT22;45054;52.062;10.010;2023-04-21T10:49:48;16.90;99.90
59282;DHT22;45054;52.062;10.010;2023-04-21T10:52:14;17.00;99.90
59282;DHT22;45054;52.062;10.010;2023-04-21T10:54:41;17.10;99.90
59282;DHT22;45054;52.062;10.010;2023-04-21T10:57:07;17.30;99.90
59282;DHT22;45054;52.062;10.010;2023-04-21T10:59:33;17.30;99.90
59282;DHT22;45054;52.062;10.010;2023-04-21T11:02:00;17.40;99.90
59282;DHT22;45054;52.062;10.010;2023-04-21T11:04:26;17.50;99.90
59282;DHT22;45054;52.062;10.010;2023-04-21T11:07:03;17.60;99.90
59282;DHT22;45054;52.062;10.010;2023-04-21T11:09:29;17.60;99.90
59282;DHT22;45054;52.062;10.010;2023-04-21T11:11:56;17.80;99.90
59282;DHT22;45054;52.062;10.010;2023-04-21T11:14:22;17.90;99.90
59282;DHT22;45054;52.062;10.010;2023-04-21T11:16:47;18.00;99.90
59282;DHT22;45054;52.062;10.010;2023-04-21T11:19:15;18.10;99.90
59282;DHT22;45054;52.062;10.010;2023-04-21T11:21:40;18.10;99.90
59282;DHT22;45054;52.062;10.010;2023-04-21T11:24:06;18.10;99.90
59282;DHT22;45054;52.062;10.010;2023-04-21T11:26:33;18.00;99.90
59282;DHT22;45054;52.062;10.010;2023-04-21T11:29:00;18.10;99.90
59282;DHT22;45054;52.062;10.010;2023-04-21T11:31:26;18.20;99.90
59282;DHT22;45054;52.062;10.010;2023-04-21T11:33:54;18.20;99.90
59282;DHT22;45054;52.062;10.010;2023-04-21T11:36:21;18.30;99.90
59282;DHT22;45054;52.062;10.010;2023-04-21T11:38:47;18.30;99.90
59282;DHT22;45054;52.062;10.010;2023-04-21T11:41:13;18.40;99.90
59282;DHT22;45054;52.062;10.010;2023-04-21T11:43:44;18.40;99.90
59282;DHT22;45054;52.062;10.010;2023-04-21T11:46:15;18.40;99.90
59282;DHT22;45054;52.062;10.010;2023-04-21T11:48:41;18.60;99.90
59282;DHT22;45054;52.062;10.010;2023-04-21T11:51:12;18.60;99.90
59282;DHT22;45054;52.062;10.010;2023-04-21T11:53:39;18.70;99.90
59282;DHT22;45054;52.062;10.010;2023-04-21T11:56:05;18.80;99.90
59282;DHT22;45054;52.062;10.010;2023-04-21T11:58:30;18.80;99.90
59282;DHT22;45054;52.062;10.010;2023-04-21T12:00:56;18.70;99.90
59282;DHT22;45054;52.062;10.010;2023-04-21T12:03:21;18.60;99.90
59282;DHT22;45054;52.062;10.010;2023-04-21T12:05:47;18.70;99.90
59282;DHT22;45054;52.062;10.010;2023-04-21T12:08:12;18.80;99.90
59282;DHT22;45054;52.062;10.010;2023-04-21T12:10:42;18.80;99.90
59282;DHT22;45054;52.062;10.010;2023-04-21T12:13:08;19.00;99.90
59282;DHT22;45054;52.062;10.010;2023-04-21T12:15:33;19.00;99.90
59282;DHT22;45054;52.062;10.010;2023-04-21T12:17:59;19.10;99.90
59282;DHT22;45054;52.062;10.010;2023-04-21T12:20:24;19.10;99.90
59282;DHT22;45054;52.062;10.010;2023-04-21T12:22:52;19.20;99.90
59282;DHT22;45054;52.062;10.010;2023-04-21T12:25:18;19.10;99.90
59282;DHT22;45054;52.062;10.010;2023-04-21T12:27:48;18.90;99.90
59282;DHT22;45054;52.062;10.010;2023-04-21T12:30:13;19.00;99.90
59282;DHT22;45054;52.062;10.010;2023-04-21T12:32:39;18.80;99.90
59282;DHT22;45054;52.062;10.010;2023-04-21T12:35:05;18.70;99.90
59282;DHT22;45054;52.062;10.010;2023-04-21T12:37:30;18.80;99.90
59282;DHT22;45054;52.062;10.010;2023-04-21T12:39:56;18.90;99.90
59282;DHT22;45054;52.062;10.010;2023-04-21T12:42:21;19.10;99.90
59282;DHT22;45054;52.062;10.010;2023-04-21T12:44:48;19.10;99.90
59282;DHT22;45054;52.062;10.010;2023-04-21T12:47:13;19.10;99.90
59282;DHT22;45054;52.062;10.010;2023-04-21T12:49:40;19.30;99.90
59282;DHT22;45054;52.062;10.010;2023-04-21T12:52:05;19.40;99.90
59282;DHT22;45054;52.062;10.010;2023-04-21T12:54:30;19.60;99.90
59282;DHT22;45054;52.062;10.010;2023-04-21T12:56:56;19.70;99.90
59282;DHT22;45054;52.062;10.010;2023-04-21T12:59:21;19.60;99.90
59282;DHT22;45054;52.062;10.010;2023-04-21T13:01:48;19.60;99.90
59282;DHT22;45054;52.062;10.010;2023-04-21T13:04:14;19.70;99.90
59282;DHT22;45054;52.062;10.010;2023-04-21T13:06:39;19.90;99.90
59282;DHT22;45054;52.062;10.010;2023-04-21T13:09:05;19.80;99.90
59282;DHT22;45054;52.062;10.010;2023-04-21T13:11:30;19.60;99.90
59282;DHT22;45054;52.062;10.010;2023-04-21T13:13:56;19.50;99.90
59282;DHT22;45054;52.062;10.010;2023-04-21T13:16:22;19.70;99.90
59282;DHT22;45054;52.062;10.010;2023-04-21T13:18:48;19.90;99.90
59282;DHT22;45054;52.062;10.010;2023-04-21T13:21:14;20.10;99.90
59282;DHT22;45054;52.062;10.010;2023-04-21T13:23:39;20.20;99.90
59282;DHT22;45054;52.062;10.010;2023-04-21T13:26:05;20.30;99.90
59282;DHT22;45054;52.062;10.010;2023-04-21T13:28:30;20.40;99.90
59282;DHT22;45054;52.062;10.010;2023-04-21T13:30:56;20.30;99.90
59282;DHT22;45054;52.062;10.010;2023-04-21T13:33:22;20.10;99.90
59282;DHT22;45054;52.062;10.010;2023-04-21T13:35:49;20.10;99.90
59282;DHT22;45054;52.062;10.010;2023-04-21T13:38:16;20.10;99.90
59282;DHT22;45054;52.062;10.010;2023-04-21T13:40:42;20.30;99.90
59282;DHT22;45054;52.062;10.010;2023-04-21T13:43:07;20.40;99.90
59282;DHT22;45054;52.062;10.010;2023-04-21T13:45:33;20.10;99.90
59282;DHT22;45054;52.062;10.010;2023-04-21T13:47:59;20.20;99.90
59282;DHT22;45054;52.062;10.010;2023-04-21T13:50:24;20.20;99.90
59282;DHT22;45054;52.062;10.010;2023-04-21T13:52:51;20.40;99.90
59282;DHT22;45054;52.062;10.010;2023-04-21T13:55:16;20.50;99.90
59282;DHT22;45054;52.062;10.010;2023-04-21T13:57:42;20.70;99.90
59282;DHT22;45054;52.062;10.010;2023-04-21T14:00:08;20.80;99.50
59282;DHT22;45054;52.062;10.010;2023-04-21T14:02:33;21.00;99.50
59282;DHT22;45054;52.062;10.010;2023-04-21T14:04:59;21.00;97.10
59282;DHT22;45054;52.062;10.010;2023-04-21T14:07:24;21.10;97.90
59282;DHT22;45054;52.062;10.010;2023-04-21T14:09:51;21.20;98.40
59282;DHT22;45054;52.062;10.010;2023-04-21T14:12:17;21.20;98.60
59282;DHT22;45054;52.062;10.010;2023-04-21T14:14:42;21.30;99.20
59282;DHT22;45054;52.062;10.010;2023-04-21T14:17:07;21.50;98.10
59282;DHT22;45054;52.062;10.010;2023-04-21T14:19:33;21.60;96.70
59282;DHT22;45054;52.062;10.010;2023-04-21T14:21:59;21.80;96.70
59282;DHT22;45054;52.062;10.010;2023-04-21T14:24:24;21.80;96.70
59282;DHT22;45054;52.062;10.010;2023-04-21T14:26:51;21.90;96.70
59282;DHT22;45054;52.062;10.010;2023-04-21T14:29:16;21.90;96.60
59282;DHT22;45054;52.062;10.010;2023-04-21T14:31:42;21.80;94.50
59282;DHT22;45054;52.062;10.010;2023-04-21T14:34:07;21.90;96.10
59282;DHT22;45054;52.062;10.010;2023-04-21T14:36:33;22.20;94.00
59282;DHT22;45054;52.062;10.010;2023-04-21T14:38:58;22.60;94.10
59282;DHT22;45054;52.062;10.010;2023-04-21T14:41:23;23.40;94.30
59282;DHT22;45054;52.062;10.010;2023-04-21T14:43:50;24.60;93.60
59282;DHT22;45054;52.062;10.010;2023-04-21T14:46:16;25.70;92.10
59282;DHT22;45054;52.062;10.010;2023-04-21T14:48:41;27.10;84.30
59282;DHT22;45054;52.062;10.010;2023-04-21T14:51:06;28.00;82.40
59282;DHT22;45054;52.062;10.010;2023-04-21T14:53:32;28.80;78.20
59282;DHT22;45054;52.062;10.010;2023-04-21T14:55:57;29.80;71.20
59282;DHT22;45054;52.062;10.010;2023-04-21T14:58:23;30.60;69.70
59282;DHT22;45054;52.062;10.010;2023-04-21T15:00:50;30.80;68.30
59282;DHT22;45054;52.062;10.010;2023-04-21T15:03:15;31.70;65.80
59282;DHT22;45054;52.062;10.010;2023-04-21T15:05:40;32.10;63.50
59282;DHT22;45054;52.062;10.010;2023-04-21T15:08:06;31.20;62.30
59282;DHT22;45054;52.062;10.010;2023-04-21T15:10:31;30.00;62.60
59282;DHT22;45054;52.062;10.010;2023-04-21T15:12:57;29.80;63.70
59282;DHT22;45054;52.062;10.010;2023-04-21T15:15:22;29.70;63.40